PAFB

Details ICAO PAFB (FBK)
Name LADD AAF
Region USA (Alaska)
Timezone America/Anchorage (UTC-9.0)
Plans Departing 2
Arriving 2
Stats Elevation 454 ft / 138 m (AMSL)
Location 64.837614° -147.614535°
Runways 1
Magnetic Variation 17.597° E
Sunrise 2017-12-12 19:48:23 UTC / 2017-12-12 10:48:23 Local
Sunset 2017-12-12 23:43:13 UTC / 2017-12-12 14:43:13 Local
Advertisement - Login to hide

Runways

ID Width Length Bearing (true) Bearing (mag) Surface Threshold Offset Overrun Length
06 150 ft / 46 m 8,525 ft / 2,598 m 89.01° 71.41° Asphalt 0 ft / 0 m 0 ft / 0 m
24 150 ft / 46 m 8,525 ft / 2,598 m 269.06° 251.46° Asphalt 0 ft / 0 m 0 ft / 0 m

Map

Weather


0- 5 10 15 20 25 30 35+ Temperature / ° C

Clouds and Precipitation
Forecast for 2017-12-13 06:00 UTC. Updated 28 minutes ago

Ground ~20,000 ft ~40,000 ft Winds

METAR

PAFB 130058Z AUTO 00000KT 10SM CLR M06/M08 A2978

TAF

TAF TAF PAFB 122016Z 1220/1402 VRB04KT 9999 SCT120 510604 QNH2965INS BECMG 1313/1314 10007KT 9999 SCT070 BKN120 520101 530208 QNH2959INS WND 11012G18KT AFT 1318 TX01/1320Z TNM09/1305Z

Frequencies

Recorded 134.25 MHz ATIS
Ground 121.70 MHz GND
Approach 125.35 MHz FAIRBANKS APP
Departure 125.35 MHz FAIRBANKS DEP
Unicom 125.00 MHz CTAF
Tower 125.00 MHz TWR
Approach 126.50 MHz FAIRBANKS APP
Warning: Do not use this data for real-world aviation or navigation. No guarantee of current accuracy is given.